sensor_id;sensor_type;location;lat;lon;timestamp;P1;durP1;ratioP1;P2;durP2;ratioP2
37641;SDS011;23486;51.956;5.888;2022-07-17T00:01:04;2.05;;;0.30;;
37641;SDS011;23486;51.956;5.888;2022-07-17T00:03:30;2.65;;;0.38;;
37641;SDS011;23486;51.956;5.888;2022-07-17T00:06:02;3.30;;;0.30;;
37641;SDS011;23486;51.956;5.888;2022-07-17T00:08:30;5.10;;;0.30;;
37641;SDS011;23486;51.956;5.888;2022-07-17T00:10:58;2.08;;;0.20;;
37641;SDS011;23486;51.956;5.888;2022-07-17T00:16:28;1.35;;;0.30;;
37641;SDS011;23486;51.956;5.888;2022-07-17T00:19:02;1.83;;;0.20;;
37641;SDS011;23486;51.956;5.888;2022-07-17T00:21:28;1.48;;;0.38;;
37641;SDS011;23486;51.956;5.888;2022-07-17T00:23:54;3.35;;;0.40;;
37641;SDS011;23486;51.956;5.888;2022-07-17T00:26:20;4.78;;;0.30;;
37641;SDS011;23486;51.956;5.888;2022-07-17T00:28:45;3.30;;;0.40;;
37641;SDS011;23486;51.956;5.888;2022-07-17T00:31:19;3.28;;;0.30;;
37641;SDS011;23486;51.956;5.888;2022-07-17T00:33:51;2.45;;;0.30;;
37641;SDS011;23486;51.956;5.888;2022-07-17T00:36:16;2.40;;;0.30;;
37641;SDS011;23486;51.956;5.888;2022-07-17T00:38:42;3.50;;;0.32;;
37641;SDS011;23486;51.956;5.888;2022-07-17T00:41:13;3.10;;;0.40;;
37641;SDS011;23486;51.956;5.888;2022-07-17T00:43:51;3.72;;;0.30;;
37641;SDS011;23486;51.956;5.888;2022-07-17T00:46:17;4.05;;;0.30;;
37641;SDS011;23486;51.956;5.888;2022-07-17T00:48:43;1.50;;;0.20;;
37641;SDS011;23486;51.956;5.888;2022-07-17T00:51:17;3.97;;;0.30;;
37641;SDS011;23486;51.956;5.888;2022-07-17T00:54:01;4.88;;;0.30;;
37641;SDS011;23486;51.956;5.888;2022-07-17T00:56:30;2.65;;;0.30;;
37641;SDS011;23486;51.956;5.888;2022-07-17T00:58:58;2.22;;;0.30;;
37641;SDS011;23486;51.956;5.888;2022-07-17T01:01:34;4.07;;;0.45;;
37641;SDS011;23486;51.956;5.888;2022-07-17T01:03:59;2.60;;;0.30;;
37641;SDS011;23486;51.956;5.888;2022-07-17T01:06:25;3.35;;;0.50;;
37641;SDS011;23486;51.956;5.888;2022-07-17T01:08:51;3.97;;;0.40;;
37641;SDS011;23486;51.956;5.888;2022-07-17T01:11:16;4.20;;;0.60;;
37641;SDS011;23486;51.956;5.888;2022-07-17T01:13:42;2.15;;;0.30;;
37641;SDS011;23486;51.956;5.888;2022-07-17T01:16:10;1.00;;;0.20;;
37641;SDS011;23486;51.956;5.888;2022-07-17T01:18:36;1.83;;;0.30;;
37641;SDS011;23486;51.956;5.888;2022-07-17T01:21:05;2.33;;;0.30;;
37641;SDS011;23486;51.956;5.888;2022-07-17T01:23:34;3.13;;;0.40;;
37641;SDS011;23486;51.956;5.888;2022-07-17T01:26:05;2.92;;;0.30;;
37641;SDS011;23486;51.956;5.888;2022-07-17T01:28:31;2.90;;;0.30;;
37641;SDS011;23486;51.956;5.888;2022-07-17T01:31:00;2.58;;;0.30;;
37641;SDS011;23486;51.956;5.888;2022-07-17T01:33:27;4.38;;;0.43;;
37641;SDS011;23486;51.956;5.888;2022-07-17T01:35:58;2.25;;;0.55;;
37641;SDS011;23486;51.956;5.888;2022-07-17T01:38:29;1.48;;;0.35;;
37641;SDS011;23486;51.956;5.888;2022-07-17T01:40:55;2.50;;;0.28;;
37641;SDS011;23486;51.956;5.888;2022-07-17T01:43:30;1.65;;;0.30;;
37641;SDS011;23486;51.956;5.888;2022-07-17T01:46:01;2.47;;;0.30;;
37641;SDS011;23486;51.956;5.888;2022-07-17T01:48:27;2.05;;;0.40;;
37641;SDS011;23486;51.956;5.888;2022-07-17T01:51:07;3.70;;;0.55;;
37641;SDS011;23486;51.956;5.888;2022-07-17T01:53:33;2.08;;;0.30;;
37641;SDS011;23486;51.956;5.888;2022-07-17T01:55:59;2.17;;;0.30;;
37641;SDS011;23486;51.956;5.888;2022-07-17T01:58:27;4.22;;;0.40;;
37641;SDS011;23486;51.956;5.888;2022-07-17T02:01:11;1.67;;;0.20;;
37641;SDS011;23486;51.956;5.888;2022-07-17T02:03:44;3.42;;;0.43;;
37641;SDS011;23486;51.956;5.888;2022-07-17T02:06:14;3.50;;;0.95;;
37641;SDS011;23486;51.956;5.888;2022-07-17T02:08:40;3.75;;;0.30;;
37641;SDS011;23486;51.956;5.888;2022-07-17T02:11:12;2.38;;;0.50;;
37641;SDS011;23486;51.956;5.888;2022-07-17T02:13:53;2.70;;;0.40;;
37641;SDS011;23486;51.956;5.888;2022-07-17T02:16:24;1.95;;;0.30;;
37641;SDS011;23486;51.956;5.888;2022-07-17T02:19:10;1.45;;;0.30;;
37641;SDS011;23486;51.956;5.888;2022-07-17T02:21:45;1.13;;;0.20;;
37641;SDS011;23486;51.956;5.888;2022-07-17T02:24:12;2.08;;;0.20;;
37641;SDS011;23486;51.956;5.888;2022-07-17T02:26:37;2.55;;;0.22;;
37641;SDS011;23486;51.956;5.888;2022-07-17T02:29:16;3.10;;;0.40;;
37641;SDS011;23486;51.956;5.888;2022-07-17T02:31:48;3.00;;;0.30;;
37641;SDS011;23486;51.956;5.888;2022-07-17T02:34:14;3.88;;;0.60;;
37641;SDS011;23486;51.956;5.888;2022-07-17T02:36:45;1.48;;;0.32;;
37641;SDS011;23486;51.956;5.888;2022-07-17T02:39:13;1.75;;;0.30;;
37641;SDS011;23486;51.956;5.888;2022-07-17T02:41:39;1.33;;;0.30;;
37641;SDS011;23486;51.956;5.888;2022-07-17T02:44:04;2.67;;;0.45;;
37641;SDS011;23486;51.956;5.888;2022-07-17T02:46:30;4.50;;;0.40;;
37641;SDS011;23486;51.956;5.888;2022-07-17T02:49:08;3.20;;;0.38;;
37641;SDS011;23486;51.956;5.888;2022-07-17T02:51:36;1.25;;;0.30;;
37641;SDS011;23486;51.956;5.888;2022-07-17T02:54:04;4.18;;;0.30;;
37641;SDS011;23486;51.956;5.888;2022-07-17T02:56:40;2.63;;;0.32;;
37641;SDS011;23486;51.956;5.888;2022-07-17T02:59:20;1.70;;;0.30;;
37641;SDS011;23486;51.956;5.888;2022-07-17T03:01:46;4.22;;;0.40;;
37641;SDS011;23486;51.956;5.888;2022-07-17T03:04:12;3.47;;;0.55;;
37641;SDS011;23486;51.956;5.888;2022-07-17T03:06:37;2.58;;;0.30;;
37641;SDS011;23486;51.956;5.888;2022-07-17T03:12:37;2.05;;;0.40;;
37641;SDS011;23486;51.956;5.888;2022-07-17T03:15:15;1.48;;;0.28;;
37641;SDS011;23486;51.956;5.888;2022-07-17T03:17:41;2.78;;;0.35;;
37641;SDS011;23486;51.956;5.888;2022-07-17T03:20:07;2.63;;;0.38;;
37641;SDS011;23486;51.956;5.888;2022-07-17T03:22:34;4.20;;;0.40;;
37641;SDS011;23486;51.956;5.888;2022-07-17T03:25:15;3.00;;;0.60;;
37641;SDS011;23486;51.956;5.888;2022-07-17T03:28:08;1.40;;;0.30;;
37641;SDS011;23486;51.956;5.888;2022-07-17T03:30:49;2.72;;;0.50;;
37641;SDS011;23486;51.956;5.888;2022-07-17T03:33:21;5.05;;;0.30;;
37641;SDS011;23486;51.956;5.888;2022-07-17T03:36:04;2.58;;;0.43;;
37641;SDS011;23486;51.956;5.888;2022-07-17T03:38:41;2.63;;;0.77;;
37641;SDS011;23486;51.956;5.888;2022-07-17T03:41:13;3.22;;;0.40;;
37641;SDS011;23486;51.956;5.888;2022-07-17T03:43:42;2.58;;;0.60;;
37641;SDS011;23486;51.956;5.888;2022-07-17T03:46:39;5.35;;;0.40;;
37641;SDS011;23486;51.956;5.888;2022-07-17T03:49:20;3.65;;;0.32;;
37641;SDS011;23486;51.956;5.888;2022-07-17T03:51:46;4.70;;;0.52;;
37641;SDS011;23486;51.956;5.888;2022-07-17T03:54:11;2.63;;;0.38;;
37641;SDS011;23486;51.956;5.888;2022-07-17T03:56:37;2.58;;;0.40;;
37641;SDS011;23486;51.956;5.888;2022-07-17T03:59:03;2.30;;;0.25;;
37641;SDS011;23486;51.956;5.888;2022-07-17T04:01:29;2.25;;;0.40;;
37641;SDS011;23486;51.956;5.888;2022-07-17T04:03:54;4.00;;;0.40;;
37641;SDS011;23486;51.956;5.888;2022-07-17T04:06:20;5.28;;;0.50;;
37641;SDS011;23486;51.956;5.888;2022-07-17T04:08:45;3.13;;;0.40;;
37641;SDS011;23486;51.956;5.888;2022-07-17T04:11:11;5.68;;;0.47;;
37641;SDS011;23486;51.956;5.888;2022-07-17T04:13:37;4.15;;;0.40;;
37641;SDS011;23486;51.956;5.888;2022-07-17T04:16:03;4.55;;;0.80;;
37641;SDS011;23486;51.956;5.888;2022-07-17T04:18:29;2.45;;;0.30;;
37641;SDS011;23486;51.956;5.888;2022-07-17T04:20:57;3.33;;;0.40;;
37641;SDS011;23486;51.956;5.888;2022-07-17T04:23:25;1.95;;;0.40;;
37641;SDS011;23486;51.956;5.888;2022-07-17T04:25:52;1.70;;;0.30;;
37641;SDS011;23486;51.956;5.888;2022-07-17T04:28:18;2.08;;;0.40;;
37641;SDS011;23486;51.956;5.888;2022-07-17T04:30:44;4.55;;;0.50;;
37641;SDS011;23486;51.956;5.888;2022-07-17T04:33:13;2.97;;;0.70;;
37641;SDS011;23486;51.956;5.888;2022-07-17T04:35:39;5.10;;;0.60;;
37641;SDS011;23486;51.956;5.888;2022-07-17T04:38:08;3.00;;;0.50;;
37641;SDS011;23486;51.956;5.888;2022-07-17T04:40:35;2.55;;;0.40;;
37641;SDS011;23486;51.956;5.888;2022-07-17T04:43:02;4.68;;;0.65;;
37641;SDS011;23486;51.956;5.888;2022-07-17T04:45:34;8.73;;;0.82;;
37641;SDS011;23486;51.956;5.888;2022-07-17T04:57:10;1.85;;;0.47;;
37641;SDS011;23486;51.956;5.888;2022-07-17T04:59:41;2.00;;;0.50;;
37641;SDS011;23486;51.956;5.888;2022-07-17T05:02:22;3.22;;;0.82;;
37641;SDS011;23486;51.956;5.888;2022-07-17T05:04:48;3.47;;;0.40;;
37641;SDS011;23486;51.956;5.888;2022-07-17T05:07:16;2.00;;;0.40;;
37641;SDS011;23486;51.956;5.888;2022-07-17T05:09:45;4.07;;;0.40;;
37641;SDS011;23486;51.956;5.888;2022-07-17T05:12:11;2.25;;;0.40;;
37641;SDS011;23486;51.956;5.888;2022-07-17T05:14:37;2.00;;;0.30;;
37641;SDS011;23486;51.956;5.888;2022-07-17T05:20:07;3.60;;;0.40;;
37641;SDS011;23486;51.956;5.888;2022-07-17T05:22:38;1.63;;;0.50;;
37641;SDS011;23486;51.956;5.888;2022-07-17T05:28:14;4.32;;;0.50;;
37641;SDS011;23486;51.956;5.888;2022-07-17T05:30:42;3.45;;;0.50;;
37641;SDS011;23486;51.956;5.888;2022-07-17T05:36:40;6.32;;;0.80;;
37641;SDS011;23486;51.956;5.888;2022-07-17T05:39:12;2.08;;;0.43;;
37641;SDS011;23486;51.956;5.888;2022-07-17T05:41:53;3.83;;;0.40;;
37641;SDS011;23486;51.956;5.888;2022-07-17T06:00:58;4.68;;;0.30;;
37641;SDS011;23486;51.956;5.888;2022-07-17T06:03:23;1.95;;;0.35;;
37641;SDS011;23486;51.956;5.888;2022-07-17T06:06:07;4.03;;;0.40;;
37641;SDS011;23486;51.956;5.888;2022-07-17T06:08:33;4.68;;;0.40;;
37641;SDS011;23486;51.956;5.888;2022-07-17T06:11:09;3.85;;;0.40;;
37641;SDS011;23486;51.956;5.888;2022-07-17T06:13:46;2.47;;;0.30;;
37641;SDS011;23486;51.956;5.888;2022-07-17T06:16:18;2.13;;;0.40;;
37641;SDS011;23486;51.956;5.888;2022-07-17T06:18:45;3.95;;;0.40;;
37641;SDS011;23486;51.956;5.888;2022-07-17T06:24:19;3.38;;;0.40;;
37641;SDS011;23486;51.956;5.888;2022-07-17T06:26:51;1.95;;;0.40;;
37641;SDS011;23486;51.956;5.888;2022-07-17T06:32:48;2.97;;;0.28;;
37641;SDS011;23486;51.956;5.888;2022-07-17T06:35:20;2.13;;;0.30;;
37641;SDS011;23486;51.956;5.888;2022-07-17T06:40:20;1.65;;;0.30;;
37641;SDS011;23486;51.956;5.888;2022-07-17T06:42:46;1.88;;;0.30;;
37641;SDS011;23486;51.956;5.888;2022-07-17T06:45:14;3.78;;;0.30;;
37641;SDS011;23486;51.956;5.888;2022-07-17T06:47:40;2.35;;;0.40;;
37641;SDS011;23486;51.956;5.888;2022-07-17T06:50:05;2.08;;;0.30;;
37641;SDS011;23486;51.956;5.888;2022-07-17T06:52:35;1.52;;;0.30;;
37641;SDS011;23486;51.956;5.888;2022-07-17T06:55:01;2.78;;;0.47;;
37641;SDS011;23486;51.956;5.888;2022-07-17T06:57:27;2.85;;;0.30;;
37641;SDS011;23486;51.956;5.888;2022-07-17T06:59:52;2.58;;;0.20;;
37641;SDS011;23486;51.956;5.888;2022-07-17T07:02:18;7.07;;;0.40;;
37641;SDS011;23486;51.956;5.888;2022-07-17T07:04:46;4.25;;;0.85;;
37641;SDS011;23486;51.956;5.888;2022-07-17T07:07:12;2.13;;;0.30;;
37641;SDS011;23486;51.956;5.888;2022-07-17T07:19:30;3.40;;;0.50;;
37641;SDS011;23486;51.956;5.888;2022-07-17T07:21:56;4.30;;;0.30;;
37641;SDS011;23486;51.956;5.888;2022-07-17T07:24:22;2.55;;;0.30;;
37641;SDS011;23486;51.956;5.888;2022-07-17T07:26:48;5.88;;;0.50;;
37641;SDS011;23486;51.956;5.888;2022-07-17T07:29:13;2.08;;;0.40;;
37641;SDS011;23486;51.956;5.888;2022-07-17T07:31:39;4.57;;;0.35;;
37641;SDS011;23486;51.956;5.888;2022-07-17T07:37:42;1.80;;;0.30;;
37641;SDS011;23486;51.956;5.888;2022-07-17T07:40:08;1.95;;;0.63;;
37641;SDS011;23486;51.956;5.888;2022-07-17T07:42:34;2.95;;;0.40;;
37641;SDS011;23486;51.956;5.888;2022-07-17T07:44:59;2.88;;;0.30;;
37641;SDS011;23486;51.956;5.888;2022-07-17T07:47:25;4.00;;;0.35;;
37641;SDS011;23486;51.956;5.888;2022-07-17T07:49:51;5.72;;;0.30;;
37641;SDS011;23486;51.956;5.888;2022-07-17T07:52:16;2.80;;;0.40;;
37641;SDS011;23486;51.956;5.888;2022-07-17T07:54:43;2.58;;;0.28;;
37641;SDS011;23486;51.956;5.888;2022-07-17T07:57:08;2.10;;;0.43;;
37641;SDS011;23486;51.956;5.888;2022-07-17T07:59:34;1.35;;;0.20;;
37641;SDS011;23486;51.956;5.888;2022-07-17T08:02:00;2.42;;;0.50;;
37641;SDS011;23486;51.956;5.888;2022-07-17T08:08:04;2.92;;;0.40;;
37641;SDS011;23486;51.956;5.888;2022-07-17T08:32:54;5.25;;;0.40;;
37641;SDS011;23486;51.956;5.888;2022-07-17T09:01:46;3.70;;;0.30;;
37641;SDS011;23486;51.956;5.888;2022-07-17T09:04:12;3.13;;;0.40;;
37641;SDS011;23486;51.956;5.888;2022-07-17T09:06:37;3.40;;;0.77;;
37641;SDS011;23486;51.956;5.888;2022-07-17T09:09:10;3.75;;;0.20;;
37641;SDS011;23486;51.956;5.888;2022-07-17T09:11:42;3.72;;;0.90;;
37641;SDS011;23486;51.956;5.888;2022-07-17T09:14:08;3.35;;;0.32;;
37641;SDS011;23486;51.956;5.888;2022-07-17T09:16:35;1.77;;;0.30;;
37641;SDS011;23486;51.956;5.888;2022-07-17T10:41:56;2.88;;;0.30;;
37641;SDS011;23486;51.956;5.888;2022-07-17T10:44:49;3.08;;;0.30;;
37641;SDS011;23486;51.956;5.888;2022-07-17T10:47:15;1.38;;;0.30;;
37641;SDS011;23486;51.956;5.888;2022-07-17T10:53:31;3.65;;;0.30;;
37641;SDS011;23486;51.956;5.888;2022-07-17T10:55:59;6.63;;;0.40;;
37641;SDS011;23486;51.956;5.888;2022-07-17T10:58:27;2.40;;;0.30;;
37641;SDS011;23486;51.956;5.888;2022-07-17T11:03:23;1.48;;;0.30;;
37641;SDS011;23486;51.956;5.888;2022-07-17T11:05:49;7.45;;;0.50;;
37641;SDS011;23486;51.956;5.888;2022-07-17T11:08:14;2.50;;;0.25;;
37641;SDS011;23486;51.956;5.888;2022-07-17T11:10:40;2.25;;;0.30;;
37641;SDS011;23486;51.956;5.888;2022-07-17T11:13:13;3.50;;;0.40;;
37641;SDS011;23486;51.956;5.888;2022-07-17T11:15:45;4.18;;;0.40;;
37641;SDS011;23486;51.956;5.888;2022-07-17T11:57:11;3.33;;;0.50;;
37641;SDS011;23486;51.956;5.888;2022-07-17T12:15:33;1.70;;;0.40;;
37641;SDS011;23486;51.956;5.888;2022-07-17T12:18:04;2.50;;;0.30;;
37641;SDS011;23486;51.956;5.888;2022-07-17T12:27:14;2.55;;;0.40;;
37641;SDS011;23486;51.956;5.888;2022-07-17T12:50:41;1.03;;;0.30;;
37641;SDS011;23486;51.956;5.888;2022-07-17T13:26:47;1.50;;;0.30;;
37641;SDS011;23486;51.956;5.888;2022-07-17T13:35:48;1.27;;;0.30;;
37641;SDS011;23486;51.956;5.888;2022-07-17T13:51:55;1.52;;;0.40;;
37641;SDS011;23486;51.956;5.888;2022-07-17T13:54:21;1.50;;;0.40;;
37641;SDS011;23486;51.956;5.888;2022-07-17T13:57:25;1.83;;;0.35;;
37641;SDS011;23486;51.956;5.888;2022-07-17T14:00:03;1.60;;;0.30;;
37641;SDS011;23486;51.956;5.888;2022-07-17T14:02:38;1.77;;;0.30;;
37641;SDS011;23486;51.956;5.888;2022-07-17T14:08:25;1.98;;;0.40;;
37641;SDS011;23486;51.956;5.888;2022-07-17T14:10:51;3.40;;;0.40;;
37641;SDS011;23486;51.956;5.888;2022-07-17T14:13:16;2.20;;;0.40;;
37641;SDS011;23486;51.956;5.888;2022-07-17T14:15:42;2.63;;;0.40;;
37641;SDS011;23486;51.956;5.888;2022-07-17T14:18:08;1.33;;;0.30;;
37641;SDS011;23486;51.956;5.888;2022-07-17T14:20:33;1.52;;;0.30;;
37641;SDS011;23486;51.956;5.888;2022-07-17T14:22:59;2.42;;;0.30;;
37641;SDS011;23486;51.956;5.888;2022-07-17T14:25:24;1.55;;;0.40;;
37641;SDS011;23486;51.956;5.888;2022-07-17T14:27:50;1.58;;;0.30;;
37641;SDS011;23486;51.956;5.888;2022-07-17T14:30:16;1.65;;;0.43;;
37641;SDS011;23486;51.956;5.888;2022-07-17T14:32:41;1.90;;;0.40;;
37641;SDS011;23486;51.956;5.888;2022-07-17T14:35:07;2.28;;;0.40;;
37641;SDS011;23486;51.956;5.888;2022-07-17T14:37:36;1.02;;;0.30;;
37641;SDS011;23486;51.956;5.888;2022-07-17T14:40:02;2.33;;;0.45;;
37641;SDS011;23486;51.956;5.888;2022-07-17T14:42:28;1.98;;;0.40;;
37641;SDS011;23486;51.956;5.888;2022-07-17T14:44:53;1.77;;;0.40;;
37641;SDS011;23486;51.956;5.888;2022-07-17T14:47:19;1.70;;;0.57;;
37641;SDS011;23486;51.956;5.888;2022-07-17T14:49:47;2.25;;;0.52;;
37641;SDS011;23486;51.956;5.888;2022-07-17T14:52:21;1.30;;;0.50;;
37641;SDS011;23486;51.956;5.888;2022-07-17T14:54:46;2.80;;;0.68;;
37641;SDS011;23486;51.956;5.888;2022-07-17T14:57:12;1.63;;;0.40;;
37641;SDS011;23486;51.956;5.888;2022-07-17T14:59:38;1.50;;;0.52;;
37641;SDS011;23486;51.956;5.888;2022-07-17T15:02:04;2.45;;;0.70;;
37641;SDS011;23486;51.956;5.888;2022-07-17T15:04:29;1.70;;;0.60;;
37641;SDS011;23486;51.956;5.888;2022-07-17T15:07:42;2.17;;;0.50;;
37641;SDS011;23486;51.956;5.888;2022-07-17T15:10:10;2.53;;;0.70;;
37641;SDS011;23486;51.956;5.888;2022-07-17T15:12:39;2.20;;;0.50;;
37641;SDS011;23486;51.956;5.888;2022-07-17T15:15:14;1.77;;;0.60;;
37641;SDS011;23486;51.956;5.888;2022-07-17T15:20:33;2.45;;;0.70;;
37641;SDS011;23486;51.956;5.888;2022-07-17T15:29:26;2.92;;;0.93;;
37641;SDS011;23486;51.956;5.888;2022-07-17T15:31:51;2.47;;;0.80;;
37641;SDS011;23486;51.956;5.888;2022-07-17T15:34:17;3.28;;;0.90;;
37641;SDS011;23486;51.956;5.888;2022-07-17T15:36:42;3.17;;;0.93;;
37641;SDS011;23486;51.956;5.888;2022-07-17T15:39:08;2.80;;;0.90;;
37641;SDS011;23486;51.956;5.888;2022-07-17T15:41:34;2.20;;;0.82;;
37641;SDS011;23486;51.956;5.888;2022-07-17T15:44:00;2.70;;;0.85;;
37641;SDS011;23486;51.956;5.888;2022-07-17T15:46:26;3.17;;;1.05;;
37641;SDS011;23486;51.956;5.888;2022-07-17T15:48:51;3.38;;;0.77;;
37641;SDS011;23486;51.956;5.888;2022-07-17T15:51:18;4.43;;;1.17;;
37641;SDS011;23486;51.956;5.888;2022-07-17T15:53:44;2.70;;;0.90;;
37641;SDS011;23486;51.956;5.888;2022-07-17T15:56:09;2.53;;;1.00;;
37641;SDS011;23486;51.956;5.888;2022-07-17T15:58:35;5.25;;;1.50;;
37641;SDS011;23486;51.956;5.888;2022-07-17T16:01:01;3.67;;;1.20;;
37641;SDS011;23486;51.956;5.888;2022-07-17T16:03:27;4.32;;;1.35;;
37641;SDS011;23486;51.956;5.888;2022-07-17T16:05:52;3.15;;;1.23;;
37641;SDS011;23486;51.956;5.888;2022-07-17T16:08:18;3.70;;;1.50;;
37641;SDS011;23486;51.956;5.888;2022-07-17T16:10:44;3.97;;;1.48;;
37641;SDS011;23486;51.956;5.888;2022-07-17T16:13:09;3.17;;;1.15;;
37641;SDS011;23486;51.956;5.888;2022-07-17T16:15:35;3.50;;;1.50;;
37641;SDS011;23486;51.956;5.888;2022-07-17T16:18:01;3.22;;;1.35;;
37641;SDS011;23486;51.956;5.888;2022-07-17T16:20:26;4.30;;;1.38;;
37641;SDS011;23486;51.956;5.888;2022-07-17T16:22:52;2.28;;;1.10;;
37641;SDS011;23486;51.956;5.888;2022-07-17T16:25:17;2.97;;;1.20;;
37641;SDS011;23486;51.956;5.888;2022-07-17T16:27:44;3.58;;;1.70;;
37641;SDS011;23486;51.956;5.888;2022-07-17T16:30:10;3.60;;;1.38;;
37641;SDS011;23486;51.956;5.888;2022-07-17T16:32:36;3.15;;;1.40;;
37641;SDS011;23486;51.956;5.888;2022-07-17T16:35:05;3.70;;;1.63;;
37641;SDS011;23486;51.956;5.888;2022-07-17T16:37:31;3.83;;;1.70;;
37641;SDS011;23486;51.956;5.888;2022-07-17T16:39:56;3.78;;;1.75;;
37641;SDS011;23486;51.956;5.888;2022-07-17T16:42:22;3.40;;;1.60;;
37641;SDS011;23486;51.956;5.888;2022-07-17T16:44:47;3.72;;;1.65;;
37641;SDS011;23486;51.956;5.888;2022-07-17T16:47:13;4.10;;;1.60;;
37641;SDS011;23486;51.956;5.888;2022-07-17T16:49:39;3.75;;;1.92;;
37641;SDS011;23486;51.956;5.888;2022-07-17T16:52:05;4.40;;;1.80;;
37641;SDS011;23486;51.956;5.888;2022-07-17T16:54:30;3.63;;;1.40;;
37641;SDS011;23486;51.956;5.888;2022-07-17T16:56:56;4.78;;;2.03;;
37641;SDS011;23486;51.956;5.888;2022-07-17T17:33:48;3.15;;;1.27;;
37641;SDS011;23486;51.956;5.888;2022-07-17T17:46:50;3.17;;;1.58;;
37641;SDS011;23486;51.956;5.888;2022-07-17T17:49:26;3.95;;;1.90;;
37641;SDS011;23486;51.956;5.888;2022-07-17T17:54:23;3.13;;;1.80;;
37641;SDS011;23486;51.956;5.888;2022-07-17T18:00:10;3.15;;;1.35;;
37641;SDS011;23486;51.956;5.888;2022-07-17T18:02:36;2.95;;;1.25;;
37641;SDS011;23486;51.956;5.888;2022-07-17T18:05:02;2.30;;;1.00;;
37641;SDS011;23486;51.956;5.888;2022-07-17T18:07:28;3.78;;;1.42;;
37641;SDS011;23486;51.956;5.888;2022-07-17T18:09:54;5.07;;;1.67;;
37641;SDS011;23486;51.956;5.888;2022-07-17T18:12:22;3.28;;;1.33;;
37641;SDS011;23486;51.956;5.888;2022-07-17T18:14:48;4.38;;;1.10;;
37641;SDS011;23486;51.956;5.888;2022-07-17T18:17:14;4.78;;;1.50;;
37641;SDS011;23486;51.956;5.888;2022-07-17T18:19:39;3.05;;;1.00;;
37641;SDS011;23486;51.956;5.888;2022-07-17T18:22:07;3.00;;;0.95;;
37641;SDS011;23486;51.956;5.888;2022-07-17T18:24:38;2.15;;;1.08;;
37641;SDS011;23486;51.956;5.888;2022-07-17T18:27:06;2.40;;;1.00;;
37641;SDS011;23486;51.956;5.888;2022-07-17T18:29:34;2.88;;;1.20;;
37641;SDS011;23486;51.956;5.888;2022-07-17T18:32:00;3.15;;;1.23;;
37641;SDS011;23486;51.956;5.888;2022-07-17T18:34:26;2.50;;;0.90;;
37641;SDS011;23486;51.956;5.888;2022-07-17T18:36:52;2.67;;;0.95;;
37641;SDS011;23486;51.956;5.888;2022-07-17T18:39:17;3.45;;;1.50;;
37641;SDS011;23486;51.956;5.888;2022-07-17T18:41:43;3.22;;;1.65;;
37641;SDS011;23486;51.956;5.888;2022-07-17T18:44:09;3.97;;;1.02;;
37641;SDS011;23486;51.956;5.888;2022-07-17T18:46:35;2.75;;;1.45;;
37641;SDS011;23486;51.956;5.888;2022-07-17T18:49:02;3.83;;;1.80;;
37641;SDS011;23486;51.956;5.888;2022-07-17T18:51:28;3.22;;;1.30;;
37641;SDS011;23486;51.956;5.888;2022-07-17T18:53:53;4.00;;;1.60;;
37641;SDS011;23486;51.956;5.888;2022-07-17T18:56:19;3.47;;;1.05;;
37641;SDS011;23486;51.956;5.888;2022-07-17T18:58:44;3.92;;;1.55;;
37641;SDS011;23486;51.956;5.888;2022-07-17T19:01:14;4.28;;;1.30;;
37641;SDS011;23486;51.956;5.888;2022-07-17T19:03:39;4.40;;;1.67;;
37641;SDS011;23486;51.956;5.888;2022-07-17T19:06:05;4.18;;;1.73;;
37641;SDS011;23486;51.956;5.888;2022-07-17T19:08:32;6.18;;;1.42;;
37641;SDS011;23486;51.956;5.888;2022-07-17T19:10:58;2.97;;;1.30;;
37641;SDS011;23486;51.956;5.888;2022-07-17T19:13:27;3.25;;;1.17;;
37641;SDS011;23486;51.956;5.888;2022-07-17T19:15:52;3.28;;;1.17;;
37641;SDS011;23486;51.956;5.888;2022-07-17T19:18:18;4.30;;;1.42;;
37641;SDS011;23486;51.956;5.888;2022-07-17T19:20:46;3.55;;;1.20;;
37641;SDS011;23486;51.956;5.888;2022-07-17T19:25:47;4.90;;;1.23;;
37641;SDS011;23486;51.956;5.888;2022-07-17T19:28:14;4.07;;;1.20;;
37641;SDS011;23486;51.956;5.888;2022-07-17T19:30:45;3.22;;;0.73;;
37641;SDS011;23486;51.956;5.888;2022-07-17T19:33:12;3.28;;;0.95;;
37641;SDS011;23486;51.956;5.888;2022-07-17T19:35:38;2.47;;;0.85;;
37641;SDS011;23486;51.956;5.888;2022-07-17T19:41:12;3.47;;;1.00;;
37641;SDS011;23486;51.956;5.888;2022-07-17T19:43:37;3.30;;;0.80;;
37641;SDS011;23486;51.956;5.888;2022-07-17T19:46:09;2.20;;;0.70;;
37641;SDS011;23486;51.956;5.888;2022-07-17T19:48:43;6.07;;;1.05;;
37641;SDS011;23486;51.956;5.888;2022-07-17T19:51:09;5.05;;;1.15;;
37641;SDS011;23486;51.956;5.888;2022-07-17T19:53:35;2.20;;;0.80;;
37641;SDS011;23486;51.956;5.888;2022-07-17T19:56:00;2.92;;;0.80;;
37641;SDS011;23486;51.956;5.888;2022-07-17T19:58:45;8.73;;;0.90;;
37641;SDS011;23486;51.956;5.888;2022-07-17T20:01:12;7.85;;;1.08;;
37641;SDS011;23486;51.956;5.888;2022-07-17T20:03:39;3.10;;;0.80;;
37641;SDS011;23486;51.956;5.888;2022-07-17T20:06:05;2.85;;;0.80;;
37641;SDS011;23486;51.956;5.888;2022-07-17T20:08:31;4.07;;;0.98;;
37641;SDS011;23486;51.956;5.888;2022-07-17T20:10:58;2.85;;;0.80;;
37641;SDS011;23486;51.956;5.888;2022-07-17T20:13:23;2.03;;;0.70;;
37641;SDS011;23486;51.956;5.888;2022-07-17T20:15:50;2.95;;;1.00;;
37641;SDS011;23486;51.956;5.888;2022-07-17T20:18:16;3.42;;;1.02;;
37641;SDS011;23486;51.956;5.888;2022-07-17T20:20:42;2.88;;;0.93;;
37641;SDS011;23486;51.956;5.888;2022-07-17T20:23:08;5.88;;;1.42;;
37641;SDS011;23486;51.956;5.888;2022-07-17T20:25:33;3.47;;;0.73;;
37641;SDS011;23486;51.956;5.888;2022-07-17T20:27:59;5.15;;;0.90;;
37641;SDS011;23486;51.956;5.888;2022-07-17T20:30:25;2.88;;;0.80;;
37641;SDS011;23486;51.956;5.888;2022-07-17T20:32:50;3.15;;;1.20;;
37641;SDS011;23486;51.956;5.888;2022-07-17T20:35:16;3.25;;;1.00;;
37641;SDS011;23486;51.956;5.888;2022-07-17T20:37:42;5.40;;;1.00;;
37641;SDS011;23486;51.956;5.888;2022-07-17T20:40:07;3.15;;;0.90;;
37641;SDS011;23486;51.956;5.888;2022-07-17T20:42:34;2.67;;;0.95;;
37641;SDS011;23486;51.956;5.888;2022-07-17T20:45:03;3.42;;;0.77;;
37641;SDS011;23486;51.956;5.888;2022-07-17T20:47:29;2.97;;;1.00;;
37641;SDS011;23486;51.956;5.888;2022-07-17T20:49:54;4.72;;;1.20;;
37641;SDS011;23486;51.956;5.888;2022-07-17T20:52:23;2.65;;;0.85;;
37641;SDS011;23486;51.956;5.888;2022-07-17T20:54:48;2.88;;;0.70;;
37641;SDS011;23486;51.956;5.888;2022-07-17T20:57:14;3.70;;;0.73;;
37641;SDS011;23486;51.956;5.888;2022-07-17T20:59:39;4.78;;;1.00;;
37641;SDS011;23486;51.956;5.888;2022-07-17T21:02:05;2.30;;;0.88;;
37641;SDS011;23486;51.956;5.888;2022-07-17T21:04:31;3.65;;;1.10;;
37641;SDS011;23486;51.956;5.888;2022-07-17T21:06:57;2.55;;;0.95;;
37641;SDS011;23486;51.956;5.888;2022-07-17T21:09:22;4.50;;;1.52;;
37641;SDS011;23486;51.956;5.888;2022-07-17T21:11:48;4.35;;;0.73;;
37641;SDS011;23486;51.956;5.888;2022-07-17T21:14:14;2.90;;;0.95;;
37641;SDS011;23486;51.956;5.888;2022-07-17T21:16:39;3.00;;;0.90;;
37641;SDS011;23486;51.956;5.888;2022-07-17T21:19:05;2.88;;;1.05;;
37641;SDS011;23486;51.956;5.888;2022-07-17T21:21:30;5.80;;;0.95;;
37641;SDS011;23486;51.956;5.888;2022-07-17T21:23:56;3.40;;;1.00;;
37641;SDS011;23486;51.956;5.888;2022-07-17T21:26:22;4.25;;;0.85;;
37641;SDS011;23486;51.956;5.888;2022-07-17T21:28:47;4.40;;;1.25;;
37641;SDS011;23486;51.956;5.888;2022-07-17T21:31:13;3.28;;;1.00;;
37641;SDS011;23486;51.956;5.888;2022-07-17T21:33:38;2.20;;;0.90;;
37641;SDS011;23486;51.956;5.888;2022-07-17T21:36:04;2.83;;;0.80;;
37641;SDS011;23486;51.956;5.888;2022-07-17T21:38:31;2.85;;;0.90;;
37641;SDS011;23486;51.956;5.888;2022-07-17T21:40:57;2.80;;;1.00;;
37641;SDS011;23486;51.956;5.888;2022-07-17T21:43:25;3.60;;;1.00;;
37641;SDS011;23486;51.956;5.888;2022-07-17T21:45:50;5.57;;;1.35;;